Terminal Aerodrome Forecast
Issued by NWS

Home | Current Version | Previous Version | Text Only | Print | Product List | Glossary Off
Versions: 1 2 3 4 5 6 7 8 9 10 11 12 13 14 15 16 17 18

000
FTUS43 KBIS 250500
TAFMOT
TAF
KMOT 250520Z 2506/2606 08009KT P6SM SCT100
     FM251000 07007KT P6SM SCT004 BKN100
     FM251300 07008KT P6SM BKN004 OVC010
     FM251800 10010KT P6SM BKN020=

USA.gov is the U.S. government's official web portal to all federal, state and local government web resources and services.